Bakherden, Turkmenistan

3:09 PM TMT on August 02, 2015 (GMT +0500)
Ashgabat | | Change Station
CLOSE
Current Station
Airport
Location: Ashgabat,
Elevation: 689 ft
Nearby Weather Stations

Elev 689 ft 37.98 °N, 58.37 °E | Updated 9 minutes ago

Clear
Clear
106 °F
Feels Like 106 °F
N
11
Wind Variable Wind from NW

Today
High -- | Low -- °F
--% Chance of Precip.
Yesterday
High -- | Low -- °F
Precip. -- in
6:12 AM 8:20 PM
Waning Gibbous, 94% visible
Pressure 29.80 in
Visibility 6.2 miles
Clouds Clear
Dew Point 32 °F
Humidity 8%
Rainfall 0.00 in
Snow Depth Not available.
UV 8 out of 12
Pollen Not available.
Air Quality Not available.
Flu Activity Not available.
METAR UTAA 021000Z 32005MPS 250V060 9999 SKC 41/M00 Q1009 NOSIG

More Conditions Fewer Conditions

Pressure 29.80 in
Visibility 6.2 miles
Clouds Clear
Dew Point 32 °F
Humidity 8%
Rainfall 0.00 in
Snow Depth Not available.
UV 8 out of 12
Pollen Not available.
Air Quality Not available.
Flu Activity Not available.
METAR UTAA 021000Z 32005MPS 250V060 9999 SKC 41/M00 Q1009 NOSIG

More Conditions Fewer Conditions

10-Day Weather Forecast

×

Almanac

Astronomy

Aug. 02, 2015 Rise Set
Actual Time
Civil Twilight
Nautical Twilight
Astronomical Twilight
Moon
Length of Visible Light
Length of Day
Tomorrow will be .
, % of the Moon is Illuminated

Today's Extremes

Country Highs Country Lows

Community

WunderPhotos

Upload Photos

1,843,214 photos uploaded!

WunderBlogs® & News

Nearby

Air Quality

  Air Quality AQ Index Pollutant
Not available.

Snow Depth

Station Depth Elevation

Earthquake Activity

City Distance Mag. Time & Date
Minimum magnitude displayed is 2.5.

Coastal Water Temperatures

Place Temperature

Stations

Nearby Weather Stations

Station Location Temp. Windchill Dew Point Humidity Wind Precip. Elev Updated Type